sensor_id;sensor_type;location;lat;lon;timestamp;temperature;humidity
58519;DHT22;44310;48.106;12.008;2023-06-04T00:02:25;19.90;68.70
58519;DHT22;44310;48.106;12.008;2023-06-04T00:04:53;19.90;68.20
58519;DHT22;44310;48.106;12.008;2023-06-04T00:07:20;19.60;68.20
58519;DHT22;44310;48.106;12.008;2023-06-04T00:09:47;19.70;68.60
58519;DHT22;44310;48.106;12.008;2023-06-04T00:12:15;19.90;68.90
58519;DHT22;44310;48.106;12.008;2023-06-04T00:14:42;19.80;68.90
58519;DHT22;44310;48.106;12.008;2023-06-04T00:17:10;20.00;69.20
58519;DHT22;44310;48.106;12.008;2023-06-04T00:19:39;19.90;68.90
58519;DHT22;44310;48.106;12.008;2023-06-04T00:22:07;20.00;69.20
58519;DHT22;44310;48.106;12.008;2023-06-04T00:24:37;19.90;69.10
58519;DHT22;44310;48.106;12.008;2023-06-04T00:27:05;19.80;68.70
58519;DHT22;44310;48.106;12.008;2023-06-04T00:29:32;19.80;68.70
58519;DHT22;44310;48.106;12.008;2023-06-04T00:31:59;19.70;68.70
58519;DHT22;44310;48.106;12.008;2023-06-04T00:34:27;20.00;68.90
58519;DHT22;44310;48.106;12.008;2023-06-04T00:36:54;19.70;68.70
58519;DHT22;44310;48.106;12.008;2023-06-04T00:39:21;19.80;68.80
58519;DHT22;44310;48.106;12.008;2023-06-04T00:41:48;19.70;68.90
58519;DHT22;44310;48.106;12.008;2023-06-04T00:44:15;19.70;68.80
58519;DHT22;44310;48.106;12.008;2023-06-04T00:46:43;19.70;68.70
58519;DHT22;44310;48.106;12.008;2023-06-04T00:49:12;19.70;68.60
58519;DHT22;44310;48.106;12.008;2023-06-04T00:51:39;19.70;68.50
58519;DHT22;44310;48.106;12.008;2023-06-04T00:54:07;19.60;68.40
58519;DHT22;44310;48.106;12.008;2023-06-04T00:56:38;19.60;68.30
58519;DHT22;44310;48.106;12.008;2023-06-04T00:59:07;19.70;68.20
58519;DHT22;44310;48.106;12.008;2023-06-04T01:01:42;19.70;68.40
58519;DHT22;44310;48.106;12.008;2023-06-04T01:04:36;19.80;69.10
58519;DHT22;44310;48.106;12.008;2023-06-04T01:07:04;19.80;69.30
58519;DHT22;44310;48.106;12.008;2023-06-04T01:09:33;19.80;68.80
58519;DHT22;44310;48.106;12.008;2023-06-04T01:12:04;19.80;68.60
58519;DHT22;44310;48.106;12.008;2023-06-04T01:14:31;19.80;68.80
58519;DHT22;44310;48.106;12.008;2023-06-04T01:17:30;19.80;68.80
58519;DHT22;44310;48.106;12.008;2023-06-04T01:25:48;19.80;68.10
58519;DHT22;44310;48.106;12.008;2023-06-04T01:28:16;19.80;67.90
58519;DHT22;44310;48.106;12.008;2023-06-04T01:30:45;19.80;67.50
58519;DHT22;44310;48.106;12.008;2023-06-04T01:33:17;19.80;67.40
58519;DHT22;44310;48.106;12.008;2023-06-04T01:35:44;19.80;67.30
58519;DHT22;44310;48.106;12.008;2023-06-04T01:38:12;19.80;67.20
58519;DHT22;44310;48.106;12.008;2023-06-04T01:40:39;19.80;67.50
58519;DHT22;44310;48.106;12.008;2023-06-04T01:43:08;19.80;67.30
58519;DHT22;44310;48.106;12.008;2023-06-04T01:45:35;19.80;67.30
58519;DHT22;44310;48.106;12.008;2023-06-04T01:48:03;19.70;67.40
58519;DHT22;44310;48.106;12.008;2023-06-04T01:50:31;19.80;67.30
58519;DHT22;44310;48.106;12.008;2023-06-04T01:52:59;19.80;67.50
58519;DHT22;44310;48.106;12.008;2023-06-04T01:55:26;19.80;67.40
58519;DHT22;44310;48.106;12.008;2023-06-04T01:57:56;19.80;67.40
58519;DHT22;44310;48.106;12.008;2023-06-04T02:00:23;19.70;67.10
58519;DHT22;44310;48.106;12.008;2023-06-04T02:02:50;19.70;66.80
58519;DHT22;44310;48.106;12.008;2023-06-04T02:05:18;19.70;66.80
58519;DHT22;44310;48.106;12.008;2023-06-04T02:07:46;19.60;66.50
58519;DHT22;44310;48.106;12.008;2023-06-04T02:10:16;19.70;66.50
58519;DHT22;44310;48.106;12.008;2023-06-04T02:12:58;19.70;66.60
58519;DHT22;44310;48.106;12.008;2023-06-04T02:15:26;19.70;66.30
58519;DHT22;44310;48.106;12.008;2023-06-04T02:17:59;19.70;66.30
58519;DHT22;44310;48.106;12.008;2023-06-04T02:20:27;19.60;66.00
58519;DHT22;44310;48.106;12.008;2023-06-04T02:22:55;20.00;66.90
58519;DHT22;44310;48.106;12.008;2023-06-04T02:25:23;19.70;67.00
58519;DHT22;44310;48.106;12.008;2023-06-04T02:27:50;19.80;67.10
58519;DHT22;44310;48.106;12.008;2023-06-04T02:30:17;19.80;67.30
58519;DHT22;44310;48.106;12.008;2023-06-04T02:32:44;19.80;67.40
58519;DHT22;44310;48.106;12.008;2023-06-04T02:35:18;19.80;67.30
58519;DHT22;44310;48.106;12.008;2023-06-04T02:37:48;19.80;67.10
58519;DHT22;44310;48.106;12.008;2023-06-04T02:40:15;19.70;67.40
58519;DHT22;44310;48.106;12.008;2023-06-04T02:42:42;19.70;67.50
58519;DHT22;44310;48.106;12.008;2023-06-04T02:45:10;19.80;67.90
58519;DHT22;44310;48.106;12.008;2023-06-04T02:47:38;19.80;68.10
58519;DHT22;44310;48.106;12.008;2023-06-04T02:50:05;19.80;68.10
58519;DHT22;44310;48.106;12.008;2023-06-04T02:52:33;19.70;67.90
58519;DHT22;44310;48.106;12.008;2023-06-04T02:55:05;19.70;67.60
58519;DHT22;44310;48.106;12.008;2023-06-04T02:57:33;19.70;67.40
58519;DHT22;44310;48.106;12.008;2023-06-04T03:00:01;19.70;67.30
58519;DHT22;44310;48.106;12.008;2023-06-04T03:02:39;19.50;67.10
58519;DHT22;44310;48.106;12.008;2023-06-04T03:05:09;19.60;67.10
58519;DHT22;44310;48.106;12.008;2023-06-04T03:07:37;19.60;67.10
58519;DHT22;44310;48.106;12.008;2023-06-04T03:10:05;19.60;67.00
58519;DHT22;44310;48.106;12.008;2023-06-04T03:12:33;19.60;66.90
58519;DHT22;44310;48.106;12.008;2023-06-04T03:15:00;19.60;67.00
58519;DHT22;44310;48.106;12.008;2023-06-04T03:17:27;19.60;67.20
58519;DHT22;44310;48.106;12.008;2023-06-04T03:19:54;19.60;66.70
58519;DHT22;44310;48.106;12.008;2023-06-04T03:22:23;19.50;66.30
58519;DHT22;44310;48.106;12.008;2023-06-04T03:24:50;19.60;66.80
58519;DHT22;44310;48.106;12.008;2023-06-04T03:27:19;19.70;67.50
58519;DHT22;44310;48.106;12.008;2023-06-04T03:29:47;19.70;67.60
58519;DHT22;44310;48.106;12.008;2023-06-04T03:32:15;19.70;67.50
58519;DHT22;44310;48.106;12.008;2023-06-04T03:34:43;19.70;67.40
58519;DHT22;44310;48.106;12.008;2023-06-04T03:37:10;19.70;67.10
58519;DHT22;44310;48.106;12.008;2023-06-04T03:39:38;19.70;67.00
58519;DHT22;44310;48.106;12.008;2023-06-04T03:42:05;19.70;66.80
58519;DHT22;44310;48.106;12.008;2023-06-04T03:44:32;19.70;66.60
58519;DHT22;44310;48.106;12.008;2023-06-04T03:46:59;19.60;66.40
58519;DHT22;44310;48.106;12.008;2023-06-04T03:49:27;19.20;66.10
58519;DHT22;44310;48.106;12.008;2023-06-04T03:51:54;19.70;66.60
58519;DHT22;44310;48.106;12.008;2023-06-04T03:54:22;19.70;66.70
58519;DHT22;44310;48.106;12.008;2023-06-04T03:56:49;19.50;66.50
58519;DHT22;44310;48.106;12.008;2023-06-04T03:59:16;19.60;66.20
58519;DHT22;44310;48.106;12.008;2023-06-04T04:01:43;19.60;65.80
58519;DHT22;44310;48.106;12.008;2023-06-04T04:04:11;19.20;65.00
58519;DHT22;44310;48.106;12.008;2023-06-04T04:06:38;19.50;65.10
58519;DHT22;44310;48.106;12.008;2023-06-04T04:09:05;19.50;65.20
58519;DHT22;44310;48.106;12.008;2023-06-04T04:11:33;19.40;65.10
58519;DHT22;44310;48.106;12.008;2023-06-04T04:14:00;19.50;65.20
58519;DHT22;44310;48.106;12.008;2023-06-04T04:16:28;19.50;65.20
58519;DHT22;44310;48.106;12.008;2023-06-04T04:18:55;19.50;65.20
58519;DHT22;44310;48.106;12.008;2023-06-04T04:21:22;19.50;65.20
58519;DHT22;44310;48.106;12.008;2023-06-04T04:23:50;19.50;65.00
58519;DHT22;44310;48.106;12.008;2023-06-04T04:26:18;19.50;64.90
58519;DHT22;44310;48.106;12.008;2023-06-04T04:28:46;19.50;64.80
58519;DHT22;44310;48.106;12.008;2023-06-04T04:31:13;19.50;65.10
58519;DHT22;44310;48.106;12.008;2023-06-04T04:33:41;19.60;65.80
58519;DHT22;44310;48.106;12.008;2023-06-04T04:36:08;19.60;66.50
58519;DHT22;44310;48.106;12.008;2023-06-04T04:38:39;19.70;67.00
58519;DHT22;44310;48.106;12.008;2023-06-04T04:41:07;19.70;67.50
58519;DHT22;44310;48.106;12.008;2023-06-04T04:43:36;19.70;67.40
58519;DHT22;44310;48.106;12.008;2023-06-04T04:46:07;19.80;67.50
58519;DHT22;44310;48.106;12.008;2023-06-04T04:48:34;19.80;67.50
58519;DHT22;44310;48.106;12.008;2023-06-04T04:51:01;19.00;67.00
58519;DHT22;44310;48.106;12.008;2023-06-04T04:53:28;19.70;67.50
58519;DHT22;44310;48.106;12.008;2023-06-04T04:55:56;19.70;67.80
58519;DHT22;44310;48.106;12.008;2023-06-04T04:58:24;19.70;67.80
58519;DHT22;44310;48.106;12.008;2023-06-04T05:00:51;19.70;67.40
58519;DHT22;44310;48.106;12.008;2023-06-04T05:03:18;19.60;66.60
58519;DHT22;44310;48.106;12.008;2023-06-04T05:05:45;19.60;66.80
58519;DHT22;44310;48.106;12.008;2023-06-04T05:08:12;19.60;67.10
58519;DHT22;44310;48.106;12.008;2023-06-04T05:10:40;19.60;67.20
58519;DHT22;44310;48.106;12.008;2023-06-04T05:13:07;19.60;67.00
58519;DHT22;44310;48.106;12.008;2023-06-04T05:15:34;19.50;66.90
58519;DHT22;44310;48.106;12.008;2023-06-04T05:18:02;19.60;67.00
58519;DHT22;44310;48.106;12.008;2023-06-04T05:20:30;19.50;66.80
58519;DHT22;44310;48.106;12.008;2023-06-04T05:22:58;19.50;67.00
58519;DHT22;44310;48.106;12.008;2023-06-04T05:25:25;19.60;66.70
58519;DHT22;44310;48.106;12.008;2023-06-04T05:27:55;19.60;66.80
58519;DHT22;44310;48.106;12.008;2023-06-04T05:30:22;19.60;67.00
58519;DHT22;44310;48.106;12.008;2023-06-04T05:32:49;19.60;67.80
58519;DHT22;44310;48.106;12.008;2023-06-04T05:35:17;19.90;68.10
58519;DHT22;44310;48.106;12.008;2023-06-04T05:37:44;19.70;68.00
58519;DHT22;44310;48.106;12.008;2023-06-04T05:40:12;19.70;67.80
58519;DHT22;44310;48.106;12.008;2023-06-04T05:42:41;19.70;67.70
58519;DHT22;44310;48.106;12.008;2023-06-04T05:45:08;19.70;67.80
58519;DHT22;44310;48.106;12.008;2023-06-04T05:47:36;19.70;67.90
58519;DHT22;44310;48.106;12.008;2023-06-04T05:50:04;19.70;67.90
58519;DHT22;44310;48.106;12.008;2023-06-04T05:52:33;19.70;67.80
58519;DHT22;44310;48.106;12.008;2023-06-04T05:55:01;19.70;68.50
58519;DHT22;44310;48.106;12.008;2023-06-04T05:57:28;19.70;67.80
58519;DHT22;44310;48.106;12.008;2023-06-04T05:59:55;19.70;67.90
58519;DHT22;44310;48.106;12.008;2023-06-04T06:02:22;19.70;68.00
58519;DHT22;44310;48.106;12.008;2023-06-04T06:04:49;19.70;68.00
58519;DHT22;44310;48.106;12.008;2023-06-04T06:07:17;19.70;68.00
58519;DHT22;44310;48.106;12.008;2023-06-04T06:09:46;19.70;68.10
58519;DHT22;44310;48.106;12.008;2023-06-04T06:12:13;19.70;68.10
58519;DHT22;44310;48.106;12.008;2023-06-04T06:14:40;19.80;68.00
58519;DHT22;44310;48.106;12.008;2023-06-04T06:17:08;19.70;67.80
58519;DHT22;44310;48.106;12.008;2023-06-04T06:19:36;19.70;67.60
58519;DHT22;44310;48.106;12.008;2023-06-04T06:22:04;19.70;67.60
58519;DHT22;44310;48.106;12.008;2023-06-04T06:24:31;19.70;67.50
58519;DHT22;44310;48.106;12.008;2023-06-04T06:26:58;19.80;67.40
58519;DHT22;44310;48.106;12.008;2023-06-04T06:29:26;19.70;67.50
58519;DHT22;44310;48.106;12.008;2023-06-04T06:31:53;19.70;67.40
58519;DHT22;44310;48.106;12.008;2023-06-04T06:34:20;19.80;67.50
58519;DHT22;44310;48.106;12.008;2023-06-04T06:36:47;20.20;67.90
58519;DHT22;44310;48.106;12.008;2023-06-04T06:39:15;19.80;68.20
58519;DHT22;44310;48.106;12.008;2023-06-04T06:41:42;19.70;67.50
58519;DHT22;44310;48.106;12.008;2023-06-04T06:44:10;19.80;67.70
58519;DHT22;44310;48.106;12.008;2023-06-04T06:46:37;20.40;68.20
58519;DHT22;44310;48.106;12.008;2023-06-04T06:49:04;19.70;67.80
58519;DHT22;44310;48.106;12.008;2023-06-04T06:51:31;19.80;67.90
58519;DHT22;44310;48.106;12.008;2023-06-04T06:53:58;19.80;68.00
58519;DHT22;44310;48.106;12.008;2023-06-04T06:56:25;19.80;67.90
58519;DHT22;44310;48.106;12.008;2023-06-04T06:58:53;19.80;67.80
58519;DHT22;44310;48.106;12.008;2023-06-04T07:01:20;19.80;68.30
58519;DHT22;44310;48.106;12.008;2023-06-04T07:03:48;19.80;67.60
58519;DHT22;44310;48.106;12.008;2023-06-04T07:06:16;19.80;67.70
58519;DHT22;44310;48.106;12.008;2023-06-04T07:08:43;19.80;67.60
58519;DHT22;44310;48.106;12.008;2023-06-04T07:11:10;19.80;67.60
58519;DHT22;44310;48.106;12.008;2023-06-04T07:13:40;19.90;67.70
58519;DHT22;44310;48.106;12.008;2023-06-04T07:16:07;19.80;67.50
58519;DHT22;44310;48.106;12.008;2023-06-04T07:18:35;19.50;67.40
58519;DHT22;44310;48.106;12.008;2023-06-04T07:21:02;19.50;67.50
58519;DHT22;44310;48.106;12.008;2023-06-04T07:23:29;19.80;67.80
58519;DHT22;44310;48.106;12.008;2023-06-04T07:25:56;19.90;68.10
58519;DHT22;44310;48.106;12.008;2023-06-04T07:28:23;19.80;68.20
58519;DHT22;44310;48.106;12.008;2023-06-04T07:30:50;19.80;68.30
58519;DHT22;44310;48.106;12.008;2023-06-04T07:33:18;19.90;68.50
58519;DHT22;44310;48.106;12.008;2023-06-04T07:35:45;19.90;68.70
58519;DHT22;44310;48.106;12.008;2023-06-04T07:38:12;19.90;68.60
58519;DHT22;44310;48.106;12.008;2023-06-04T07:40:39;19.80;68.50
58519;DHT22;44310;48.106;12.008;2023-06-04T07:43:06;19.90;68.50
58519;DHT22;44310;48.106;12.008;2023-06-04T07:45:33;19.80;68.50
58519;DHT22;44310;48.106;12.008;2023-06-04T07:48:02;19.90;68.60
58519;DHT22;44310;48.106;12.008;2023-06-04T07:50:29;19.80;68.40
58519;DHT22;44310;48.106;12.008;2023-06-04T07:53:00;19.80;68.40
58519;DHT22;44310;48.106;12.008;2023-06-04T07:55:27;19.80;68.40
58519;DHT22;44310;48.106;12.008;2023-06-04T07:57:55;19.80;68.40
58519;DHT22;44310;48.106;12.008;2023-06-04T08:00:22;19.90;68.30
58519;DHT22;44310;48.106;12.008;2023-06-04T08:02:49;19.80;68.20
58519;DHT22;44310;48.106;12.008;2023-06-04T08:05:17;19.90;68.30
58519;DHT22;44310;48.106;12.008;2023-06-04T08:07:46;19.90;68.30
58519;DHT22;44310;48.106;12.008;2023-06-04T08:10:13;20.10;68.30
58519;DHT22;44310;48.106;12.008;2023-06-04T08:12:40;19.90;68.50
58519;DHT22;44310;48.106;12.008;2023-06-04T08:15:07;19.90;68.70
58519;DHT22;44310;48.106;12.008;2023-06-04T08:17:35;19.90;69.00
58519;DHT22;44310;48.106;12.008;2023-06-04T08:20:03;19.90;69.10
58519;DHT22;44310;48.106;12.008;2023-06-04T08:22:33;19.90;69.30
58519;DHT22;44310;48.106;12.008;2023-06-04T08:25:00;19.90;69.60
58519;DHT22;44310;48.106;12.008;2023-06-04T08:27:27;20.00;69.70
58519;DHT22;44310;48.106;12.008;2023-06-04T08:29:54;19.90;69.90
58519;DHT22;44310;48.106;12.008;2023-06-04T08:32:22;19.90;70.10
58519;DHT22;44310;48.106;12.008;2023-06-04T08:34:49;19.90;70.30
58519;DHT22;44310;48.106;12.008;2023-06-04T08:37:17;19.90;70.30
58519;DHT22;44310;48.106;12.008;2023-06-04T08:39:44;19.90;70.40
58519;DHT22;44310;48.106;12.008;2023-06-04T08:42:23;19.90;70.50
58519;DHT22;44310;48.106;12.008;2023-06-04T08:44:54;20.00;70.70
58519;DHT22;44310;48.106;12.008;2023-06-04T08:47:28;19.90;70.70
58519;DHT22;44310;48.106;12.008;2023-06-04T08:49:59;19.90;70.80
58519;DHT22;44310;48.106;12.008;2023-06-04T08:52:29;20.00;71.40
58519;DHT22;44310;48.106;12.008;2023-06-04T08:54:57;19.90;70.80
58519;DHT22;44310;48.106;12.008;2023-06-04T08:57:26;20.00;70.80
58519;DHT22;44310;48.106;12.008;2023-06-04T08:59:53;20.00;70.90
58519;DHT22;44310;48.106;12.008;2023-06-04T09:02:20;19.90;70.80
58519;DHT22;44310;48.106;12.008;2023-06-04T09:04:48;19.90;70.90
58519;DHT22;44310;48.106;12.008;2023-06-04T09:07:16;20.00;70.90
58519;DHT22;44310;48.106;12.008;2023-06-04T09:09:46;19.90;70.80
58519;DHT22;44310;48.106;12.008;2023-06-04T09:12:27;19.90;70.60
58519;DHT22;44310;48.106;12.008;2023-06-04T09:14:56;19.90;70.70
58519;DHT22;44310;48.106;12.008;2023-06-04T09:17:24;19.90;70.80
58519;DHT22;44310;48.106;12.008;2023-06-04T09:19:52;19.90;70.60
58519;DHT22;44310;48.106;12.008;2023-06-04T09:22:19;20.50;70.90
58519;DHT22;44310;48.106;12.008;2023-06-04T09:24:47;20.00;70.60
58519;DHT22;44310;48.106;12.008;2023-06-04T09:27:18;20.00;70.70
58519;DHT22;44310;48.106;12.008;2023-06-04T09:29:53;20.00;70.60
58519;DHT22;44310;48.106;12.008;2023-06-04T09:32:22;20.00;70.40
58519;DHT22;44310;48.106;12.008;2023-06-04T09:34:49;19.90;67.30
58519;DHT22;44310;48.106;12.008;2023-06-04T09:37:17;19.80;67.10
58519;DHT22;44310;48.106;12.008;2023-06-04T09:39:56;19.60;67.30
58519;DHT22;44310;48.106;12.008;2023-06-04T09:42:23;19.60;67.40
58519;DHT22;44310;48.106;12.008;2023-06-04T09:44:51;19.60;67.80
58519;DHT22;44310;48.106;12.008;2023-06-04T09:47:18;19.70;68.30
58519;DHT22;44310;48.106;12.008;2023-06-04T09:49:46;19.80;69.00
58519;DHT22;44310;48.106;12.008;2023-06-04T09:52:14;19.80;69.40
58519;DHT22;44310;48.106;12.008;2023-06-04T09:54:41;19.80;69.60
58519;DHT22;44310;48.106;12.008;2023-06-04T09:57:16;20.00;70.20
58519;DHT22;44310;48.106;12.008;2023-06-04T09:59:49;19.50;70.30
58519;DHT22;44310;48.106;12.008;2023-06-04T10:02:20;20.10;70.90
58519;DHT22;44310;48.106;12.008;2023-06-04T10:04:55;20.10;71.40
58519;DHT22;44310;48.106;12.008;2023-06-04T10:07:26;20.10;71.70
58519;DHT22;44310;48.106;12.008;2023-06-04T10:09:53;20.10;71.80
58519;DHT22;44310;48.106;12.008;2023-06-04T10:12:26;20.10;71.80
58519;DHT22;44310;48.106;12.008;2023-06-04T10:15:11;20.00;72.00
58519;DHT22;44310;48.106;12.008;2023-06-04T10:17:39;20.10;72.10
58519;DHT22;44310;48.106;12.008;2023-06-04T10:20:08;20.10;72.20
58519;DHT22;44310;48.106;12.008;2023-06-04T10:22:37;20.10;72.40
58519;DHT22;44310;48.106;12.008;2023-06-04T10:25:05;20.10;72.30
58519;DHT22;44310;48.106;12.008;2023-06-04T10:27:32;20.10;71.90
58519;DHT22;44310;48.106;12.008;2023-06-04T10:30:03;20.00;71.90
58519;DHT22;44310;48.106;12.008;2023-06-04T10:32:31;20.00;72.10
58519;DHT22;44310;48.106;12.008;2023-06-04T10:34:58;20.10;72.50
58519;DHT22;44310;48.106;12.008;2023-06-04T10:37:31;20.10;72.50
58519;DHT22;44310;48.106;12.008;2023-06-04T10:39:59;20.00;73.00
58519;DHT22;44310;48.106;12.008;2023-06-04T10:42:26;20.00;72.00
58519;DHT22;44310;48.106;12.008;2023-06-04T10:45:04;20.10;72.60
58519;DHT22;44310;48.106;12.008;2023-06-04T10:47:31;20.10;72.80
58519;DHT22;44310;48.106;12.008;2023-06-04T10:50:08;20.10;72.80
58519;DHT22;44310;48.106;12.008;2023-06-04T10:52:51;20.10;72.80
58519;DHT22;44310;48.106;12.008;2023-06-04T10:55:18;20.10;72.70
58519;DHT22;44310;48.106;12.008;2023-06-04T10:57:55;20.10;72.70
58519;DHT22;44310;48.106;12.008;2023-06-04T11:00:37;20.00;72.70
58519;DHT22;44310;48.106;12.008;2023-06-04T11:03:05;20.10;72.70
58519;DHT22;44310;48.106;12.008;2023-06-04T11:05:37;20.10;72.60
58519;DHT22;44310;48.106;12.008;2023-06-04T11:08:05;19.90;72.40
58519;DHT22;44310;48.106;12.008;2023-06-04T11:10:43;20.10;72.50
58519;DHT22;44310;48.106;12.008;2023-06-04T11:13:11;20.10;72.50
58519;DHT22;44310;48.106;12.008;2023-06-04T11:15:43;20.10;72.50
58519;DHT22;44310;48.106;12.008;2023-06-04T11:18:16;20.10;72.70
58519;DHT22;44310;48.106;12.008;2023-06-04T11:20:48;20.10;72.90
58519;DHT22;44310;48.106;12.008;2023-06-04T11:23:17;20.20;73.20
58519;DHT22;44310;48.106;12.008;2023-06-04T11:25:44;20.40;73.30
58519;DHT22;44310;48.106;12.008;2023-06-04T11:28:16;20.10;73.10
58519;DHT22;44310;48.106;12.008;2023-06-04T11:30:56;20.10;73.10
58519;DHT22;44310;48.106;12.008;2023-06-04T11:33:23;20.10;72.80
58519;DHT22;44310;48.106;12.008;2023-06-04T11:35:51;20.20;73.10
58519;DHT22;44310;48.106;12.008;2023-06-04T11:38:18;20.20;73.00
58519;DHT22;44310;48.106;12.008;2023-06-04T11:40:59;20.20;72.70
58519;DHT22;44310;48.106;12.008;2023-06-04T11:43:28;20.20;72.80
58519;DHT22;44310;48.106;12.008;2023-06-04T11:45:56;20.10;72.80
58519;DHT22;44310;48.106;12.008;2023-06-04T11:48:23;20.10;73.00
58519;DHT22;44310;48.106;12.008;2023-06-04T11:50:51;20.10;73.40
58519;DHT22;44310;48.106;12.008;2023-06-04T11:53:18;20.20;74.50
58519;DHT22;44310;48.106;12.008;2023-06-04T11:55:46;20.20;75.30
58519;DHT22;44310;48.106;12.008;2023-06-04T11:58:13;20.20;75.40
58519;DHT22;44310;48.106;12.008;2023-06-04T12:00:41;20.20;75.30
58519;DHT22;44310;48.106;12.008;2023-06-04T12:03:08;20.20;75.40
58519;DHT22;44310;48.106;12.008;2023-06-04T12:05:35;20.20;75.80
58519;DHT22;44310;48.106;12.008;2023-06-04T12:08:09;20.30;76.50
58519;DHT22;44310;48.106;12.008;2023-06-04T12:10:41;20.30;77.00
58519;DHT22;44310;48.106;12.008;2023-06-04T12:13:10;20.40;77.40
58519;DHT22;44310;48.106;12.008;2023-06-04T12:15:37;20.30;77.50
58519;DHT22;44310;48.106;12.008;2023-06-04T12:18:04;19.80;77.10
58519;DHT22;44310;48.106;12.008;2023-06-04T12:22:59;20.30;77.30
58519;DHT22;44310;48.106;12.008;2023-06-04T12:25:27;20.30;77.40
58519;DHT22;44310;48.106;12.008;2023-06-04T12:27:54;20.30;77.60
58519;DHT22;44310;48.106;12.008;2023-06-04T12:30:22;20.30;77.80
58519;DHT22;44310;48.106;12.008;2023-06-04T12:32:49;20.30;77.70
58519;DHT22;44310;48.106;12.008;2023-06-04T12:35:19;20.30;77.90
58519;DHT22;44310;48.106;12.008;2023-06-04T12:37:46;20.30;77.10
58519;DHT22;44310;48.106;12.008;2023-06-04T12:40:13;20.20;76.80
58519;DHT22;44310;48.106;12.008;2023-06-04T12:42:41;20.20;75.80
58519;DHT22;44310;48.106;12.008;2023-06-04T12:45:10;20.30;77.10
58519;DHT22;44310;48.106;12.008;2023-06-04T12:47:40;20.30;77.10
58519;DHT22;44310;48.106;12.008;2023-06-04T12:50:09;20.30;76.20
58519;DHT22;44310;48.106;12.008;2023-06-04T12:52:36;20.30;77.10
58519;DHT22;44310;48.106;12.008;2023-06-04T12:55:04;20.30;77.40
58519;DHT22;44310;48.106;12.008;2023-06-04T12:57:31;20.30;76.70
58519;DHT22;44310;48.106;12.008;2023-06-04T12:59:58;20.40;77.20
58519;DHT22;44310;48.106;12.008;2023-06-04T13:02:25;20.40;77.00
58519;DHT22;44310;48.106;12.008;2023-06-04T13:04:53;20.40;77.20
58519;DHT22;44310;48.106;12.008;2023-06-04T13:07:23;20.50;76.90
58519;DHT22;44310;48.106;12.008;2023-06-04T13:09:53;20.40;76.20
58519;DHT22;44310;48.106;12.008;2023-06-04T13:12:20;20.30;74.80
58519;DHT22;44310;48.106;12.008;2023-06-04T13:14:47;20.30;75.30
58519;DHT22;44310;48.106;12.008;2023-06-04T13:17:15;20.30;74.90
58519;DHT22;44310;48.106;12.008;2023-06-04T13:19:49;20.10;74.90
58519;DHT22;44310;48.106;12.008;2023-06-04T13:22:17;20.30;76.00
58519;DHT22;44310;48.106;12.008;2023-06-04T13:24:44;20.30;75.80
58519;DHT22;44310;48.106;12.008;2023-06-04T13:27:11;20.30;76.30
58519;DHT22;44310;48.106;12.008;2023-06-04T13:29:38;20.30;77.60
58519;DHT22;44310;48.106;12.008;2023-06-04T13:32:07;20.40;77.60
58519;DHT22;44310;48.106;12.008;2023-06-04T13:34:34;20.30;78.00
58519;DHT22;44310;48.106;12.008;2023-06-04T13:37:01;20.30;78.40
58519;DHT22;44310;48.106;12.008;2023-06-04T13:39:32;20.30;78.80
58519;DHT22;44310;48.106;12.008;2023-06-04T13:41:59;20.40;79.10
58519;DHT22;44310;48.106;12.008;2023-06-04T13:44:26;20.90;77.40
58519;DHT22;44310;48.106;12.008;2023-06-04T13:46:58;20.40;76.80
58519;DHT22;44310;48.106;12.008;2023-06-04T13:49:25;20.40;77.20
58519;DHT22;44310;48.106;12.008;2023-06-04T13:51:52;20.40;77.30
58519;DHT22;44310;48.106;12.008;2023-06-04T13:54:19;20.40;78.40
58519;DHT22;44310;48.106;12.008;2023-06-04T13:56:48;20.60;79.10
58519;DHT22;44310;48.106;12.008;2023-06-04T13:59:15;20.50;79.30
58519;DHT22;44310;48.106;12.008;2023-06-04T14:01:42;20.50;79.60
58519;DHT22;44310;48.106;12.008;2023-06-04T14:04:09;20.80;79.10
58519;DHT22;44310;48.106;12.008;2023-06-04T14:06:38;20.50;79.30
58519;DHT22;44310;48.106;12.008;2023-06-04T14:09:05;20.80;79.70
58519;DHT22;44310;48.106;12.008;2023-06-04T14:11:33;20.50;76.00
58519;DHT22;44310;48.106;12.008;2023-06-04T14:14:01;20.60;72.20
58519;DHT22;44310;48.106;12.008;2023-06-04T14:16:28;20.50;72.50
58519;DHT22;44310;48.106;12.008;2023-06-04T14:18:55;20.50;74.20
58519;DHT22;44310;48.106;12.008;2023-06-04T14:21:23;20.50;75.70
58519;DHT22;44310;48.106;12.008;2023-06-04T14:23:50;20.50;76.40
58519;DHT22;44310;48.106;12.008;2023-06-04T14:26:17;20.50;77.20
58519;DHT22;44310;48.106;12.008;2023-06-04T14:28:45;20.50;77.70
58519;DHT22;44310;48.106;12.008;2023-06-04T14:31:12;20.40;77.80
58519;DHT22;44310;48.106;12.008;2023-06-04T14:33:39;20.80;78.00
58519;DHT22;44310;48.106;12.008;2023-06-04T14:36:07;20.40;77.90
58519;DHT22;44310;48.106;12.008;2023-06-04T14:38:34;20.40;78.10
58519;DHT22;44310;48.106;12.008;2023-06-04T14:41:01;20.30;77.70
58519;DHT22;44310;48.106;12.008;2023-06-04T14:43:28;20.30;77.80
58519;DHT22;44310;48.106;12.008;2023-06-04T14:45:56;20.30;78.20
58519;DHT22;44310;48.106;12.008;2023-06-04T14:48:23;20.30;78.30
58519;DHT22;44310;48.106;12.008;2023-06-04T14:50:50;20.30;78.50
58519;DHT22;44310;48.106;12.008;2023-06-04T14:53:22;20.20;78.60
58519;DHT22;44310;48.106;12.008;2023-06-04T14:55:50;20.20;78.70
58519;DHT22;44310;48.106;12.008;2023-06-04T14:58:18;20.20;78.80
58519;DHT22;44310;48.106;12.008;2023-06-04T15:00:45;20.20;78.70
58519;DHT22;44310;48.106;12.008;2023-06-04T15:03:13;20.20;78.90
58519;DHT22;44310;48.106;12.008;2023-06-04T15:05:40;20.20;79.60
58519;DHT22;44310;48.106;12.008;2023-06-04T15:08:07;20.20;79.00
58519;DHT22;44310;48.106;12.008;2023-06-04T15:10:35;20.10;78.80
58519;DHT22;44310;48.106;12.008;2023-06-04T15:13:02;20.10;78.80
58519;DHT22;44310;48.106;12.008;2023-06-04T15:15:29;20.10;78.90
58519;DHT22;44310;48.106;12.008;2023-06-04T15:17:57;20.10;78.90
58519;DHT22;44310;48.106;12.008;2023-06-04T15:20:24;20.10;78.90
58519;DHT22;44310;48.106;12.008;2023-06-04T15:22:54;20.10;79.00
58519;DHT22;44310;48.106;12.008;2023-06-04T15:25:22;20.10;79.10
58519;DHT22;44310;48.106;12.008;2023-06-04T15:27:49;20.10;78.90
58519;DHT22;44310;48.106;12.008;2023-06-04T15:30:16;20.10;79.20
58519;DHT22;44310;48.106;12.008;2023-06-04T15:32:47;20.10;79.10